Pagina principale
METAR-TAF:

METAR-TAF

Aeroporti :

Base di Solenzara

Solenzara, Francia

latitudine: 41-55N, longitudine: 009-24E, altezza: 8 m

Osservazione

Il bollettino è stato emesso 21 minuti fa, alle 02:00 UTC
Vento 4 kt da ovest
Temperature 20°C
Umidità 68%
Pressione 1020 hPa
Visibilità 10 km o più
nessuna nube inferiore a 1500 m e nessun cumulonembo

METAR: LFKS 160200Z AUTO 28004KT CAVOK 20/14 Q1020

Ora: 04:21 (02:21 UTC)

Previsione

Il bollettino è stato emesso 15 ore e 21 minuti fa, alle 11:00 UTC
Previsione valida dal 15 alle 11 UTC al 16 alle 09 UTC
Vento 7 kt da est
Visibilità 10 km o più
nessuna nube inferiore a 1500 m e nessun cumulonembo

TAF: LFKS 151100Z 1511/1609 10007KT CAVOK

Osservazioni e previsioni meteorologiche di più di 4000 aeroporti (messaggi METAR e TAF).

Le stazioni disponibili sono rappresentate dai dischi gialli e rossi sulla carta.

Puntare il mouse per vedere il nome della stazione.

Clicca sopra per visualizzare le osservazioni e previsioni meteorologiche.

Per cambiare la mappa : fare clic sui pulsanti verdi con una croce nera per ingrandire, il pulsante verde con un trattino per diminuire, o sulla freccia verde per le mappe adiacenti.


METAR-TAF: